本站抢注成功_正在竞价中的域名 (11161) 条记录 [导出列表]

域名 长度 当前价格 域名简介 结束时间 剩余时间 操作
shangLong0531.com 13 ≈144 [PR3] 2019-8-25 2:22:13 19秒 [出价]
indonesiasearch.com 15 ≈142 -- 2019-8-25 2:26:59 5分5秒 [出价]
dvdexchange.com 11 ≈200 -- 2019-8-25 2:27:59 6分5秒 [出价]
jinsha708.com 9 ≈144 -- 2019-8-25 2:27:59 6分5秒 [出价]
davidorusseLL.com 13 ≈179 -- 2019-8-25 2:30:58 9分4秒 [出价]
whbx027.net 7 ≈163 [PR3] 2019-8-25 2:31:58 10分4秒 [出价]
newtyres.com 8 1255 -- 2019-8-25 2:31:59 10分5秒 [出价]
catbaby.com 7 1187 -- 2019-8-25 2:32:59 11分5秒 [出价]
1112676.com 7 ≈298 -- 2019-8-25 2:33:57 12分3秒 [出价]
ksduijiang.com 10 ≈142 [PR3] 2019-8-25 2:33:59 12分5秒 [出价]
chinaszac.com 9 ≈144 [PR2] 2019-8-25 2:35:58 14分4秒 [出价]
charonsoftware.com 14 ≈137 -- 2019-8-25 2:36:17 14分23秒 [出价]
cLubbrandy.com 10 ≈144 [PR3] 2019-8-25 2:38:14 16分20秒 [出价]
takasick.com 8 ≈128 [PR2] 2019-8-25 2:39:15 17分21秒 [出价]
kvzo.com 4 ≈828 -- 2019-8-25 2:39:15 17分21秒 [出价]
duvaLLtech.com 10 ≈135 [PR3] 2019-8-25 2:43:14 21分20秒 [出价]
sey30.com 5 ≈135 [PR3] 2019-8-25 2:45:16 23分22秒 [出价]
mL0792.com 6 ≈137 -- 2019-8-25 2:45:16 23分22秒 [出价]
jinsha208.com 9 ≈137 -- 2019-8-25 2:46:15 24分21秒 [出价]
tapheritage.org 11 ≈163 [PR2] 2019-8-25 2:46:17 24分23秒 [出价]
poder360.com 8 2193 [PR3] 2019-8-25 2:47:17 25分23秒 [出价]
corona-extra.net 12 ≈156 -- 2019-8-25 2:48:14 26分20秒 [出价]
9aLw.com 4 ≈130 [PR3] 2019-8-25 2:49:15 27分21秒 [出价]
66kg.net 4 ≈163 [高PR4] 2019-8-25 2:49:15 27分21秒 [出价]
finance-wiz.com 11 ≈135 [PR2] 2019-8-25 2:51:14 29分20秒 [出价]
wzLinkman.com 9 ≈135 [PR2] 2019-8-25 2:51:15 29分21秒 [出价]
robbaron.com 8 ≈144 -- 2019-8-25 2:52:17 30分23秒 [出价]
adamsavebooks.com 13 ≈802 [PR2] 2019-8-25 2:53:17 31分23秒 [出价]
xindeLijixie.net 12 ≈156 5拼:新德理吉鞋 [PR3] 2019-8-25 2:54:13 32分19秒 [出价]
6993999.com 7 ≈135 -- 2019-8-25 2:55:16 33分22秒 [出价]
jinsha408.com 9 ≈137 -- 2019-8-25 2:56:16 34分22秒 [出价]
cowboyadventures.com 16 ≈728 -- 2019-8-25 2:58:16 36分22秒 [出价]
000840.com 6 1113 -- 2019-8-25 2:58:17 36分23秒 [出价]
sLothouse.com 9 2520 -- 2019-8-25 2:58:20 36分26秒 [出价]
b0b0.com 4 ≈413 -- 2019-8-25 2:58:20 36分26秒 [出价]
nenbi.com 5 ≈623 2拼:嫩比 2019-8-25 2:58:20 36分26秒 [出价]
201678.com 6 ≈728 -- 2019-8-25 2:58:20 36分26秒 [出价]
withme.net 6 ≈413 -- 2019-8-25 2:58:20 36分26秒 [出价]
weiyigou.com 8 ≈798 3拼:微易购 2019-8-25 2:58:21 36分27秒 [出价]
aLLbugs.com 7 ≈518 -- 2019-8-25 2:58:21 36分27秒 [出价]
s335.com 4 ≈448 [PR2] 2019-8-25 2:58:22 36分28秒 [出价]
411466.com 6 ≈448 -- 2019-8-25 2:58:22 36分28秒 [出价]
vanadishoteL.com 12 ≈427 -- 2019-8-25 2:58:23 36分29秒 [出价]
weLcometomorrow.com 15 ≈483 -- 2019-8-25 2:58:23 36分29秒 [出价]
daotun.com 6 ≈413 2拼:导屯 2019-8-25 2:58:24 36分30秒 [出价]
11489.com 5 7812 -- 2019-8-25 2:58:27 36分33秒 [出价]
howardandsons.com 13 1995 -- 2019-8-25 2:58:27 36分33秒 [出价]
saena.com 5 3080 3拼:撒恩阿 2019-8-25 2:58:28 36分34秒 [出价]
teatr-brezhonek.org 15 ≈175 -- 2019-8-25 2:58:29 36分35秒 [出价]
thecss.com 6 1099 -- 2019-8-25 2:58:30 36分36秒 [出价]
jrett.com 5 ≈483 [PR3] 2019-8-25 2:58:30 36分36秒 [出价]
aLishun.com 7 ≈448 3拼:阿理顺 2019-8-25 2:58:30 36分36秒 [出价]
gab.cc 3 ≈448 -- 2019-8-25 2:58:30 36分36秒 [出价]
thegrittywoman.com 14 ≈448 -- 2019-8-25 2:58:31 36分37秒 [出价]
tecasan.com 7 ≈462 3拼:特擦伞 2019-8-25 2:58:32 36分38秒 [出价]
whats-app.com 9 ≈798 -- 2019-8-25 2:58:34 36分40秒 [出价]
14065.com 5 ≈483 -- 2019-8-25 2:58:35 36分41秒 [出价]
868693.com 6 ≈798 -- 2019-8-25 2:58:35 36分41秒 [出价]
iLikeshop.com 9 ≈413 -- 2019-8-25 2:58:36 36分42秒 [出价]
jc-group.com 8 ≈693 -- 2019-8-25 2:58:36 36分42秒 [出价]
0009999.com 7 1120 -- 2019-8-25 2:58:37 36分43秒 [出价]
jLfcw.com 5 ≈560 -- 2019-8-25 2:58:37 36分43秒 [出价]
gogwiki.com 7 ≈483 -- 2019-8-25 2:58:37 36分43秒 [出价]
Loirenature.org 11 ≈280 -- 2019-8-25 2:58:39 36分45秒 [出价]
worLdcoin.org 9 ≈770 -- 2019-8-25 2:58:40 36分46秒 [出价]
k-port.org 6 ≈112 -- 2019-8-25 2:58:41 36分47秒 [出价]
icLord.com 6 ≈413 -- 2019-8-25 2:58:41 36分47秒 [出价]
mwj.cc 3 ≈742 -- 2019-8-25 2:58:41 36分47秒 [出价]
ecLa.org 4 ≈455 [PR2] 2019-8-25 2:58:42 36分48秒 [出价]
w-radioLogy.com 11 ≈497 -- 2019-8-25 2:58:43 36分49秒 [出价]
expertworLd.com 11 2625 -- 2019-8-25 2:58:43 36分49秒 [出价]
officegateway.com 13 ≈665 -- 2019-8-25 2:58:44 36分50秒 [出价]
tc39.com 4 ≈413 -- 2019-8-25 2:58:45 36分51秒 [出价]
ck13.com 4 ≈413 -- 2019-8-25 2:58:45 36分51秒 [出价]
jcz.org 3 1582 -- 2019-8-25 2:58:46 36分52秒 [出价]
uniondesma.. 25 4060 -- 2019-8-25 2:58:49 36分55秒 [出价]
temporaire.com 10 2695 -- 2019-8-25 2:58:49 36分55秒 [出价]
quLeduo.com 7 ≈623 3拼:趣乐多 2019-8-25 2:58:50 36分56秒 [出价]
abeiLLemusique.com 14 ≈910 -- 2019-8-25 2:58:51 36分57秒 [出价]
Lockney.com 7 ≈448 -- 2019-8-25 2:58:52 36分58秒 [出价]
yh192.com 5 ≈413 -- 2019-8-25 2:58:52 36分58秒 [出价]
aiot.org 4 ≈805 -- 2019-8-25 2:58:52 36分58秒 [出价]
ei-ahLa.org 7 ≈945 [PR3] 2019-8-25 2:58:52 36分58秒 [出价]
cLinicadentaLe.com 14 ≈588 -- 2019-8-25 2:58:52 36分58秒 [出价]
piratespLunder.com 14 ≈490 -- 2019-8-25 2:58:52 36分58秒 [出价]
masterkids.com 10 1351 -- 2019-8-25 2:58:53 36分59秒 [出价]
tuandeng.com 8 1568 2拼:团登 2019-8-25 2:58:54 37分0秒 [出价]
33q.cc 3 ≈413 -- 2019-8-25 2:58:54 37分0秒 [出价]
zuanfa.com 6 ≈518 2拼:钻发 2019-8-25 2:58:54 37分0秒 [出价]
assistancedog.org 13 ≈182 -- 2019-8-25 2:58:57 37分3秒 [出价]
koca.org 4 ≈210 -- 2019-8-25 2:58:57 37分3秒 [出价]
cobirds.com 7 ≈518 -- 2019-8-25 2:58:57 37分3秒 [出价]
gLuecksmomente.com 14 ≈518 -- 2019-8-25 2:58:57 37分3秒 [出价]
vc-cn.com 5 ≈413 -- 2019-8-25 2:58:58 37分4秒 [出价]
Librarysup.. 19 1078 -- 2019-8-25 2:59:00 37分6秒 [出价]
567266.com 6 ≈588 -- 2019-8-25 2:59:00 37分6秒 [出价]
carcrash.org 8 1001 [PR3] 2019-8-25 2:59:00 37分6秒 [出价]
erfurter.com 8 ≈413 -- 2019-8-25 2:59:01 37分7秒 [出价]
nbatseba.com 8 ≈413 -- 2019-8-25 2:59:03 37分9秒 [出价]
saojue.com 6 ≈448 2拼:扫绝 2019-8-25 2:59:04 37分10秒 [出价]
dewbeLL.com 7 ≈483 -- 2019-8-25 2:59:08 37分14秒 [出价]
venicenice.com 10 ≈413 -- 2019-8-25 2:59:08 37分14秒 [出价]
mercury.tv 7 ≈728 -- 2019-8-25 2:59:09 37分15秒 [出价]
poo.cc 3 ≈483 2拼:破哦 2019-8-25 2:59:09 37分15秒 [出价]
woodwynnfarms.org 13 ≈210 -- 2019-8-25 2:59:10 37分16秒 [出价]
Libertine-.. 20 ≈448 -- 2019-8-25 2:59:10 37分16秒 [出价]
hubstapLer.com 10 ≈448 -- 2019-8-25 2:59:10 37分16秒 [出价]
271212.com 6 ≈959 -- 2019-8-25 2:59:10 37分16秒 [出价]
nydeL.com 5 ≈728 -- 2019-8-25 2:59:10 37分16秒 [出价]
viLLes.org 6 ≈147 -- 2019-8-25 2:59:11 37分17秒 [出价]
eaap2018.org 8 ≈140 -- 2019-8-25 2:59:11 37分17秒 [出价]
tiantianxiu.com 11 ≈483 3拼:天天秀 2019-8-25 2:59:11 37分17秒 [出价]
mang.tv 4 ≈413 1拼:芒 2019-8-25 2:59:12 37分18秒 [出价]
zoiot.com 5 ≈413 -- 2019-8-25 2:59:13 37分19秒 [出价]
jiasibo.com 7 ≈144 3拼:佳司博 [PR3] 2019-8-25 2:59:16 37分22秒 [出价]
12942.com 5 ≈483 -- 2019-8-25 2:59:34 37分40秒 [出价]
din-it-kunskap.com 14 ≈135 [PR2] 2019-8-25 3:00:15 38分21秒 [出价]
10249.com 5 ≈553 -- 2019-8-25 3:01:02 39分8秒 [出价]
zhengdavita.com 11 ≈135 -- 2019-8-25 3:01:14 39分20秒 [出价]
metaL-signs.com 11 ≈135 -- 2019-8-25 3:01:15 39分21秒 [出价]
sushirockohio.com 13 ≈135 [PR2] 2019-8-25 3:01:16 39分22秒 [出价]
10184.com 5 ≈483 -- 2019-8-25 3:01:48 39分54秒 [出价]
aajv.com 4 ≈525 -- 2019-8-25 3:01:57 40分3秒 [出价]
yabuLihg.net 8 ≈156 [高PR4] 2019-8-25 3:02:15 40分21秒 [出价]
09624.com 5 ≈490 -- 2019-8-25 3:02:25 40分31秒 [出价]
enteLos.com 7 6090 [PR3] 2019-8-25 3:03:10 41分16秒 [出价]
spceo.com 5 ≈137 [PR3] 2019-8-25 3:03:14 41分20秒 [出价]
caomeikou.com 9 ≈135 3拼:曹美口 [PR2] 2019-8-25 3:03:15 41分21秒 [出价]
jandscapitaLmgmt.com 16 ≈137 -- 2019-8-25 3:03:17 41分23秒 [出价]
09586.com 5 ≈483 -- 2019-8-25 3:03:57 42分3秒 [出价]
08560.com 5 ≈483 -- 2019-8-25 3:05:17 43分23秒 [出价]
04860.com 5 ≈483 -- 2019-8-25 3:05:25 43分31秒 [出价]
04530.com 5 ≈490 -- 2019-8-25 3:06:54 45分0秒 [出价]
04462.com 5 ≈483 -- 2019-8-25 3:08:02 46分8秒 [出价]
04083.com 5 ≈483 -- 2019-8-25 3:08:23 46分29秒 [出价]
hairprofessionaLs.net 17 ≈156 -- 2019-8-25 3:09:16 47分22秒 [出价]
03906.com 5 ≈483 -- 2019-8-25 3:09:25 47分31秒 [出价]
03852.com 5 ≈483 -- 2019-8-25 3:10:24 48分30秒 [出价]
03261.com 5 ≈483 -- 2019-8-25 3:12:04 50分10秒 [出价]
szzhichen.com 9 ≈137 -- 2019-8-25 3:12:14 50分20秒 [出价]
jLsccm.com 6 ≈137 [PR3] 2019-8-25 3:12:14 50分20秒 [出价]
murdervictims.com 13 5670 -- 2019-8-25 3:12:48 50分54秒 [出价]
02671.com 5 ≈490 -- 2019-8-25 3:13:04 51分10秒 [出价]
budsoffice.com 10 ≈137 -- 2019-8-25 3:13:15 51分21秒 [出价]
02476.com 5 ≈490 -- 2019-8-25 3:13:50 51分56秒 [出价]
Lzair.com 5 ≈560 -- 2019-8-25 3:14:10 52分16秒 [出价]
naizhe.com 6 ≈735 2拼:奶折 2019-8-25 3:14:11 52分17秒 [出价]
traveLwith.com 10 2310 -- 2019-8-25 3:14:11 52分17秒 [出价]
oahoo.com 5 ≈553 -- 2019-8-25 3:14:11 52分17秒 [出价]
tuanrong.com 8 ≈560 2拼:团融 2019-8-25 3:14:12 52分18秒 [出价]
996681.com 6 ≈917 -- 2019-8-25 3:14:12 52分18秒 [出价]
qtick.com 5 ≈560 [高PR5] 2019-8-25 3:14:13 52分19秒 [出价]
gm18.com 4 2450 -- 2019-8-25 3:14:13 52分19秒 [出价]
izyt.com 4 ≈672 -- 2019-8-25 3:14:14 52分20秒 [出价]
tuanding.com 8 1694 2拼:团订 2019-8-25 3:14:14 52分20秒 [出价]
egmfm.com 5 ≈135 [PR2] 2019-8-25 3:14:16 52分22秒 [出价]
02293.com 5 ≈490 -- 2019-8-25 3:14:43 52分49秒 [出价]
01609.com 5 ≈490 -- 2019-8-25 3:15:33 53分39秒 [出价]
isLandireLand.com 13 8470 -- 2019-8-25 3:16:34 54分40秒 [出价]
soramaria.com 9 ≈135 [PR2] 2019-8-25 3:17:17 55分23秒 [出价]
Lignes-de-reperes.com 17 1820 -- 2019-8-25 3:17:50 55分56秒 [出价]
foundmyLocation.com 15 ≈553 -- 2019-8-25 3:18:44 56分50秒 [出价]
ojrbands.com 8 ≈135 [PR2] 2019-8-25 3:19:16 57分22秒 [出价]
sainu.com 5 ≈553 2拼:塞努 2019-8-25 3:19:58 58分4秒 [出价]
midwestjobsite.com 14 ≈135 -- 2019-8-25 3:20:17 58分23秒 [出价]
yuxisz.com 6 ≈135 [PR2] 2019-8-25 3:21:14 59分20秒 [出价]
observator.. 21 2240 -- 2019-8-25 3:22:04 1小时10秒 [出价]
sageza.com 6 ≈221 3拼:撒格杂 2019-8-25 3:23:16 1小时1分 [出价]
jgge.com 4 ≈483 -- 2019-8-25 3:23:49 1小时1分 [出价]
xcmgdoosan.com 10 ≈135 [PR3] 2019-8-25 3:24:16 1小时2分 [出价]
runmingzhiLeng.com 14 ≈135 4拼:润名知冷 [PR2] 2019-8-25 3:25:14 1小时3分 [出价]
twiLightti.. 19 ≈137 [PR2] 2019-8-25 3:26:16 1小时4分 [出价]
dtdns.com 5 ≈567 [PR3] 2019-8-25 3:27:49 1小时5分 [出价]
ungue.com 5 ≈137 -- 2019-8-25 3:28:16 1小时6分 [出价]
avigen.com 6 ≈303 -- 2019-8-25 3:29:16 1小时7分 [出价]
skina.com 5 3262 -- 2019-8-25 3:29:25 1小时7分 [出价]
dos1.com 4 ≈289 -- 2019-8-25 3:33:17 1小时11分 [出价]
xqbyq.com 5 ≈137 [PR3] 2019-8-25 3:35:13 1小时13分 [出价]
97834.com 5 ≈483 -- 2019-8-25 3:35:26 1小时13分 [出价]
psychgrad.org 9 ≈219 [PR2] 2019-8-25 3:36:15 1小时14分 [出价]
dynamicworkout.com 14 ≈137 -- 2019-8-25 3:36:18 1小时14分 [出价]
97536.com 5 1400 -- 2019-8-25 3:37:17 1小时15分 [出价]
97389.com 5 ≈483 -- 2019-8-25 3:38:16 1小时16分 [出价]
dc077.com 5 ≈130 [PR3] 2019-8-25 3:38:17 1小时16分 [出价]
95471.com 5 ≈483 -- 2019-8-25 3:38:26 1小时16分 [出价]
metaLiteind.com 11 ≈135 -- 2019-8-25 3:39:15 1小时17分 [出价]
93640.com 5 ≈483 -- 2019-8-25 3:40:17 1小时18分 [出价]
92167.com 5 ≈483 -- 2019-8-25 3:41:03 1小时19分 [出价]
3ds-movie.com 9 ≈177 [PR2] 2019-8-25 3:41:15 1小时19分 [出价]
90310.com 5 ≈483 -- 2019-8-25 3:42:03 1小时20分 [出价]
yzhuibing.com 9 ≈135 [PR3] 2019-8-25 3:42:16 1小时20分 [出价]
90201.com 5 1183 -- 2019-8-25 3:42:25 1小时20分 [出价]
89141.com 5 ≈483 -- 2019-8-25 3:43:34 1小时21分 [出价]
87063.com 5 ≈483 -- 2019-8-25 3:45:02 1小时23分 [出价]
www77890.com 8 ≈137 -- 2019-8-25 3:45:17 1小时23分 [出价]
aLegreindu.. 22 ≈137 [PR2] 2019-8-25 3:45:18 1小时23分 [出价]
82063.com 5 ≈483 -- 2019-8-25 3:46:11 1小时24分 [出价]
79985.com 5 8463 -- 2019-8-25 3:46:35 1小时24分 [出价]
79423.com 5 ≈490 -- 2019-8-25 3:47:59 1小时26分 [出价]
79402.com 5 ≈483 -- 2019-8-25 3:48:25 1小时26分 [出价]
79105.com 5 ≈483 -- 2019-8-25 3:49:35 1小时27分 [出价]
78476.com 5 ≈483 -- 2019-8-25 3:50:59 1小时29分 [出价]
678223.com 6 ≈137 -- 2019-8-25 3:51:13 1小时29分 [出价]
76487.com 5 ≈483 -- 2019-8-25 3:51:34 1小时29分 [出价]
hnmfcL.com 6 ≈137 -- 2019-8-25 3:52:15 1小时30分 [出价]
76301.com 5 ≈490 -- 2019-8-25 3:52:25 1小时30分 [出价]
hy85.com 4 ≈144 -- 2019-8-25 3:53:17 1小时31分 [出价]
76203.com 5 ≈483 -- 2019-8-25 3:53:34 1小时31分 [出价]
saLkcompany.com 11 ≈135 -- 2019-8-25 3:54:16 1小时32分 [出价]
daedaLus-music.com 14 ≈135 -- 2019-8-25 3:54:17 1小时32分 [出价]
75904.com 5 ≈483 -- 2019-8-25 3:55:17 1小时33分 [出价]
75835.com 5 ≈490 -- 2019-8-25 3:56:03 1小时34分 [出价]
connecting.. 22 ≈135 [PR3] 2019-8-25 3:56:15 1小时34分 [出价]
74132.com 5 ≈483 -- 2019-8-25 3:57:18 1小时35分 [出价]
73157.com 5 ≈490 -- 2019-8-25 3:57:34 1小时35分 [出价]
munchiegames.com 12 ≈137 [PR3] 2019-8-25 3:58:17 1小时36分 [出价]
72585.com 5 ≈483 -- 2019-8-25 3:59:08 1小时37分 [出价]
71852.com 5 ≈483 -- 2019-8-25 3:59:35 1小时37分 [出价]
adocuLos.com 8 ≈142 -- 2019-8-25 4:00:13 1小时38分 [出价]
yoram.com 5 2405 [PR2] 2019-8-25 4:00:13 1小时38分 [出价]
71730.com 5 ≈483 -- 2019-8-25 4:00:34 1小时38分 [出价]
kkzyz.com 5 ≈137 -- 2019-8-25 4:01:17 1小时39分 [出价]
71431.com 5 ≈483 -- 2019-8-25 4:01:35 1小时39分 [出价]
harLem1.com 7 ≈142 -- 2019-8-25 4:02:18 1小时40分 [出价]
68942.com 5 ≈490 -- 2019-8-25 4:02:57 1小时41分 [出价]
asiadigit.com 9 ≈137 [PR2] 2019-8-25 4:03:18 1小时41分 [出价]
68714.com 5 ≈483 -- 2019-8-25 4:03:35 1小时41分 [出价]
68112.com 5 7063 -- 2019-8-25 4:04:35 1小时42分 [出价]
62704.com 5 ≈483 -- 2019-8-25 4:06:18 1小时44分 [出价]
61702.com 5 ≈483 -- 2019-8-25 4:07:08 1小时45分 [出价]
61431.com 5 ≈483 -- 2019-8-25 4:08:17 1小时46分 [出价]
61327.com 5 ≈483 -- 2019-8-25 4:08:36 1小时46分 [出价]
ptt2.com 4 ≈144 -- 2019-8-25 4:09:15 1小时47分 [出价]
dieseL1.com 7 ≈331 -- 2019-8-25 4:09:17 1小时47分 [出价]
58763.com 5 ≈483 -- 2019-8-25 4:09:35 1小时47分 [出价]
51656.com 5 5744 -- 2019-8-25 4:10:16 1小时48分 [出价]
56529.com 5 ≈483 -- 2019-8-25 4:11:08 1小时49分 [出价]
hz688.com 5 ≈137 -- 2019-8-25 4:11:17 1小时49分 [出价]
56389.com 5 ≈483 -- 2019-8-25 4:11:35 1小时49分 [出价]
gd15.com 4 ≈165 -- 2019-8-25 4:12:15 1小时50分 [出价]
55742.com 5 ≈483 -- 2019-8-25 4:12:34 1小时50分 [出价]
ynbit.net 5 ≈156 [PR2] 2019-8-25 4:13:15 1小时51分 [出价]
54952.com 5 ≈483 -- 2019-8-25 4:13:49 1小时51分 [出价]
53961.com 5 ≈483 -- 2019-8-25 4:14:36 1小时52分 [出价]
xianxingpop.com 11 ≈135 [PR2] 2019-8-25 4:15:13 1小时53分 [出价]
sdjx2.com 5 ≈135 [PR3] 2019-8-25 4:15:14 1小时53分 [出价]
xj178.net 5 ≈156 [PR2] 2019-8-25 4:15:17 1小时53分 [出价]
53937.com 5 1400 -- 2019-8-25 4:15:28 1小时53分 [出价]
worLdsfirst.com 11 10033 -- 2019-8-25 4:16:18 1小时54分 [出价]
52746.com 5 ≈483 -- 2019-8-25 4:16:28 1小时54分 [出价]
www28699.com 8 ≈137 -- 2019-8-25 4:18:18 1小时56分 [出价]
50201.com 5 1470 -- 2019-8-25 4:18:18 1小时56分 [出价]
49079.com 5 ≈483 -- 2019-8-25 4:19:49 1小时57分 [出价]
47801.com 5 ≈483 -- 2019-8-25 4:21:03 1小时59分 [出价]
46985.com 5 ≈483 -- 2019-8-25 4:22:02 2小时8秒 [出价]
pic-taiwan.com 10 ≈135 [PR2] 2019-8-25 4:22:17 2小时23秒 [出价]
46327.com 5 ≈483 -- 2019-8-25 4:22:26 2小时32秒 [出价]
45352.com 5 ≈483 -- 2019-8-25 4:23:27 2小时1分 [出价]
44307.com 5 ≈483 -- 2019-8-25 4:25:07 2小时3分 [出价]
chinawhem.org 9 ≈156 -- 2019-8-25 4:25:15 2小时3分 [出价]
44067.com 5 ≈483 -- 2019-8-25 4:26:08 2小时4分 [出价]
44065.com 5 ≈700 -- 2019-8-25 4:26:48 2小时4分 [出价]
worLdpaLLettruck.com 16 ≈135 [PR3] 2019-8-25 4:27:15 2小时5分 [出价]
43901.com 5 ≈483 -- 2019-8-25 4:28:08 2小时6分 [出价]
juggarea.com 8 ≈137 [PR2] 2019-8-25 4:28:17 2小时6分 [出价]
okeve.com 5 ≈165 [PR2] 2019-8-25 4:28:18 2小时6分 [出价]
42261.com 5 ≈483 -- 2019-8-25 4:29:03 2小时7分 [出价]
wweshow.com 7 ≈128 -- 2019-8-25 4:29:16 2小时7分 [出价]
shuaitong5.org 10 ≈163 -- 2019-8-25 4:29:17 2小时7分 [出价]
40591.com 5 ≈483 -- 2019-8-25 4:29:25 2小时7分 [出价]
northwesttire.com 13 ≈137 -- 2019-8-25 4:30:18 2小时8分 [出价]
40492.com 5 ≈483 -- 2019-8-25 4:31:09 2小时9分 [出价]
capistranocar.com 13 ≈137 -- 2019-8-25 4:31:16 2小时9分 [出价]
38935.com 5 ≈483 -- 2019-8-25 4:31:50 2小时9分 [出价]
38920.com 5 ≈490 -- 2019-8-25 4:33:17 2小时11分 [出价]
202383.com 6 ≈130 -- 2019-8-25 4:33:18 2小时11分 [出价]
www21800.com 8 ≈137 -- 2019-8-25 4:34:14 2小时12分 [出价]
tvnews1.com 7 ≈142 -- 2019-8-25 4:34:15 2小时12分 [出价]
38673.com 5 ≈483 -- 2019-8-25 4:34:19 2小时12分 [出价]
38647.com 5 ≈483 -- 2019-8-25 4:35:07 2小时13分 [出价]
c415.com 4 ≈130 -- 2019-8-25 4:35:15 2小时13分 [出价]
38236.com 5 ≈483 -- 2019-8-25 4:35:48 2小时13分 [出价]
38027.com 5 ≈483 -- 2019-8-25 4:36:50 2小时14分 [出价]
021-bjgs.com 8 ≈135 [PR2] 2019-8-25 4:37:16 2小时15分 [出价]
37940.com 5 ≈483 -- 2019-8-25 4:37:36 2小时15分 [出价]
37640.com 5 ≈483 -- 2019-8-25 4:38:50 2小时16分 [出价]
36064.com 5 ≈483 -- 2019-8-25 4:39:35 2小时17分 [出价]
34058.com 5 ≈483 -- 2019-8-25 4:41:19 2小时19分 [出价]
szhuidiantong.com 13 ≈137 -- 2019-8-25 4:42:17 2小时20分 [出价]
29842.com 5 ≈483 -- 2019-8-25 4:42:19 2小时20分 [出价]
29680.com 5 ≈483 -- 2019-8-25 4:43:11 2小时21分 [出价]
27815.com 5 ≈483 -- 2019-8-25 4:43:34 2小时21分 [出价]
26159.com 5 ≈483 -- 2019-8-25 4:44:34 2小时22分 [出价]
665b.com 4 ≈135 -- 2019-8-25 4:45:16 2小时23分 [出价]
25062.com 5 ≈483 -- 2019-8-25 4:45:27 2小时23分 [出价]
dribswines.com 10 ≈135 -- 2019-8-25 4:46:17 2小时24分 [出价]
24927.com 5 ≈483 -- 2019-8-25 4:46:25 2小时24分 [出价]
24093.com 5 ≈483 -- 2019-8-25 4:47:57 2小时26分 [出价]
geocLoud.cc 8 ≈149 -- 2019-8-25 4:48:16 2小时26分 [出价]
jinsha308.com 9 ≈137 -- 2019-8-25 4:49:17 2小时27分 [出价]
23867.com 5 ≈483 -- 2019-8-25 4:49:18 2小时27分 [出价]
39272.com 5 4080 -- 2019-8-25 4:49:25 2小时27分 [出价]
23357.com 5 8400 -- 2019-8-25 4:49:27 2小时27分 [出价]
20904.com 5 ≈700 -- 2019-8-25 4:51:17 2小时29分 [出价]
19403.com 5 ≈483 -- 2019-8-25 4:52:04 2小时30分 [出价]
djchinanews.com 11 ≈135 -- 2019-8-25 4:52:17 2小时30分 [出价]
19354.com 5 ≈483 -- 2019-8-25 4:53:05 2小时31分 [出价]
19154.com 5 ≈483 -- 2019-8-25 4:53:27 2小时31分 [出价]
qinxuewu.com 8 ≈137 3拼:琴学屋 2019-8-25 4:54:16 2小时32分 [出价]
appvns.com 6 ≈137 -- 2019-8-25 4:54:17 2小时32分 [出价]
taiyoinkthai.com 12 ≈135 [PR2] 2019-8-25 4:55:17 2小时33分 [出价]
hhav.com 4 1563 -- 2019-8-25 4:55:17 2小时33分 [出价]
18950.com 5 ≈483 -- 2019-8-25 4:55:19 2小时33分 [出价]
17534.com 5 ≈483 -- 2019-8-25 4:56:04 2小时34分 [出价]
16259.com 5 1470 -- 2019-8-25 4:57:36 2小时35分 [出价]
amerihybrid.com 11 ≈137 -- 2019-8-25 4:58:17 2小时36分 [出价]
14751.com 5 ≈490 -- 2019-8-25 4:58:34 2小时36分 [出价]
nLook.net 5 ≈156 [PR2] 2019-8-25 4:59:16 2小时37分 [出价]
azuLceLLuLar.com 12 ≈137 -- 2019-8-25 4:59:16 2小时37分 [出价]
rundifLoor.com 10 ≈135 [PR2] 2019-8-25 4:59:16 2小时37分 [出价]
gotcast.com 7 1493 [PR3] 2019-8-25 5:00:17 2小时38分 [出价]
rancomp.com 7 ≈144 -- 2019-8-25 5:02:17 2小时40分 [出价]
sztxpf.com 6 ≈135 [PR2] 2019-8-25 5:02:26 2小时40分 [出价]
ycjayy.com 6 ≈137 -- 2019-8-25 5:03:17 2小时41分 [出价]
rufuscubed.com 10 ≈137 [PR2] 2019-8-25 5:05:16 2小时43分 [出价]
jinsha608.com 9 ≈137 -- 2019-8-25 5:05:18 2小时43分 [出价]
jiexiLy.com 7 ≈137 [PR2] 2019-8-25 5:09:16 2小时47分 [出价]
gzbangyue.com 9 ≈135 [PR3] 2019-8-25 5:11:15 2小时49分 [出价]
ppqycj.com 6 ≈137 [PR2] 2019-8-25 5:11:15 2小时49分 [出价]
shang-seo.com 9 ≈137 -- 2019-8-25 5:11:15 2小时49分 [出价]
kironsLeep.com 10 ≈137 -- 2019-8-25 5:14:15 2小时52分 [出价]
gztoptrade.com 10 ≈137 [PR2] 2019-8-25 5:14:16 2小时52分 [出价]
textiLe-trade.com 13 ≈137 [PR2] 2019-8-25 5:20:15 2小时58分 [出价]
vanguardusa.com 11 ≈179 -- 2019-8-25 5:23:15 3小时1分 [出价]
884038.com 6 ≈137 -- 2019-8-25 5:24:15 3小时2分 [出价]
sankawacnc.com 10 ≈135 [PR2] 2019-8-25 5:25:14 3小时3分 [出价]
dodchina.com 8 ≈137 [PR3] 2019-8-25 5:26:15 3小时4分 [出价]
Liveatvancouver.net 15 ≈156 -- 2019-8-25 5:26:16 3小时4分 [出价]
zbzsjs.com 6 ≈135 [PR2] 2019-8-25 5:27:16 3小时5分 [出价]
163daohang.net 10 ≈156 [PR2] 2019-8-25 5:27:16 3小时5分 [出价]
518sk.com 5 ≈137 [高PR4] 2019-8-25 5:27:17 3小时5分 [出价]
qingshuangLu.com.cn 12 ≈28 3拼:庆双路 2019-8-25 19:19:30 16小时57分 [出价]
mingsen326.com 10 ≈388 -- 2019-8-25 19:59:26 17小时37分 [出价]
tunimeiLi.com 9 ≈95 4拼:图昵美理 [PR2] 2019-8-25 19:59:33 17小时37分 [出价]
sskycL.com 6 ≈95 -- 2019-8-25 19:59:34 17小时37分 [出价]
sdxysj.com 6 ≈88 -- 2019-8-25 19:59:35 17小时37分 [出价]
thwfiLms.com 8 ≈88 -- 2019-8-25 19:59:36 17小时37分 [出价]
Luoyijie.com 8 ≈88 3拼:落易节 2019-8-25 19:59:36 17小时37分 [出价]
wuxitianying.com 12 ≈88 4拼:屋喜天影 2019-8-25 19:59:36 17小时37分 [出价]
pangucx.com 7 ≈88 -- 2019-8-25 19:59:36 17小时37分 [出价]
hshrbj.com 6 ≈88 -- 2019-8-25 19:59:37 17小时37分 [出价]
ttgsda.com 6 ≈88 -- 2019-8-25 19:59:37 17小时37分 [出价]
sxgoodfamiLy.com 12 ≈88 [PR2] 2019-8-25 19:59:37 17小时37分 [出价]
forsaLary.com 9 ≈88 -- 2019-8-25 19:59:38 17小时37分 [出价]
LLssx.com 5 ≈88 [PR2] 2019-8-25 19:59:38 17小时37分 [出价]
xdf138.com 6 ≈88 -- 2019-8-25 19:59:38 17小时37分 [出价]
co-time.com 7 ≈88 -- 2019-8-25 19:59:38 17小时37分 [出价]
hntpsj123.com 9 ≈88 -- 2019-8-25 19:59:38 17小时37分 [出价]
arsjq.com 5 ≈88 -- 2019-8-25 19:59:38 17小时37分 [出价]
dbwLjg.com 6 ≈88 -- 2019-8-25 19:59:38 17小时37分 [出价]
xintuocLoud.com 11 ≈88 -- 2019-8-25 19:59:39 17小时37分 [出价]
tdf123.com 6 ≈88 -- 2019-8-25 19:59:39 17小时37分 [出价]
tuyishe.com 7 ≈209 3拼:图易社 2019-8-25 19:59:39 17小时37分 [出价]
taugats.com 7 ≈88 -- 2019-8-25 19:59:39 17小时37分 [出价]
zsccc.com 5 ≈88 -- 2019-8-25 19:59:39 17小时37分 [出价]
hnfywd.com 6 ≈89 -- 2019-8-25 19:59:39 17小时37分 [出价]
hydian.com 6 ≈88 -- 2019-8-25 19:59:39 17小时37分 [出价]
djwbc.com 5 ≈88 -- 2019-8-25 19:59:39 17小时37分 [出价]
jypLan.com 6 ≈88 -- 2019-8-25 19:59:39 17小时37分 [出价]
youjirenzheng.org 13 ≈99 4拼:优吉人正 [PR3] 2019-8-25 19:59:40 17小时37分 [出价]
suter-china.com 11 ≈88 -- 2019-8-25 19:59:40 17小时37分 [出价]
zhoong.com 6 ≈88 -- 2019-8-25 19:59:40 17小时37分 [出价]
airwefLy.com 8 ≈88 -- 2019-8-25 19:59:40 17小时37分 [出价]
zhxL139.com 7 ≈88 -- 2019-8-25 19:59:41 17小时37分 [出价]
ggjx.com 4 3169 -- 2019-8-25 19:59:41 17小时37分 [出价]
bnyinfo.com 7 ≈88 -- 2019-8-25 19:59:41 17小时37分 [出价]
sdztktsb.com 8 ≈88 -- 2019-8-25 19:59:41 17小时37分 [出价]
cdcwyxx.com 7 ≈88 -- 2019-8-25 19:59:41 17小时37分 [出价]
tjhkhbkj.com 8 ≈88 -- 2019-8-25 19:59:41 17小时37分 [出价]
zidongshou.com 10 ≈95 3拼:子东首 [PR2] 2019-8-25 19:59:41 17小时37分 [出价]
chdbanjia.com 9 ≈88 -- 2019-8-25 19:59:41 17小时37分 [出价]
Lshycy.com 6 ≈88 -- 2019-8-25 19:59:41 17小时37分 [出价]
yuandaogj.com 9 ≈88 -- 2019-8-25 19:59:41 17小时37分 [出价]
hefeiLunyi.com 10 ≈88 4拼:合非伦易 2019-8-25 19:59:42 17小时37分 [出价]
Litianjp.com 8 ≈88 -- 2019-8-25 19:59:42 17小时37分 [出价]
szrjfs.com 6 ≈88 -- 2019-8-25 19:59:42 17小时37分 [出价]
whbj6.com 5 ≈88 -- 2019-8-25 19:59:42 17小时37分 [出价]
qinghao8.com 8 ≈88 -- 2019-8-25 19:59:42 17小时37分 [出价]
daxfood.com 7 ≈88 -- 2019-8-25 19:59:42 17小时37分 [出价]
chavip.com 6 ≈88 -- 2019-8-25 19:59:42 17小时37分 [出价]
yyppt.net 5 ≈88 -- 2019-8-25 19:59:42 17小时37分 [出价]
xianguogang.com 11 ≈88 3拼:鲜国钢 2019-8-25 19:59:42 17小时37分 [出价]
gdzsL.com 5 ≈88 -- 2019-8-25 19:59:42 17小时37分 [出价]
sdweijin.com 8 ≈88 -- 2019-8-25 19:59:42 17小时37分 [出价]
youyipromo.com 10 ≈88 -- 2019-8-25 19:59:43 17小时37分 [出价]
tdgdgc.com 6 ≈88 -- 2019-8-25 19:59:44 17小时37分 [出价]
csxhxzs.com 7 ≈88 -- 2019-8-25 19:59:44 17小时37分 [出价]
huipiao68.com 9 ≈88 -- 2019-8-25 19:59:44 17小时37分 [出价]
chenzhaoyi.com 10 ≈88 3拼:陈找易 2019-8-25 19:59:45 17小时37分 [出价]
bLyL0.net 5 ≈88 -- 2019-8-25 19:59:45 17小时37分 [出价]
jnLnjxsb.com 8 ≈88 -- 2019-8-25 19:59:46 17小时37分 [出价]
ruigr.com 5 ≈88 [PR2] 2019-8-25 19:59:47 17小时37分 [出价]
inn3.com 4 ≈88 -- 2019-8-25 19:59:48 17小时37分 [出价]
xybbg.com 5 ≈88 -- 2019-8-25 19:59:48 17小时37分 [出价]
4000171669kv.com 12 ≈88 -- 2019-8-25 19:59:48 17小时37分 [出价]
haigexing.com 9 ≈88 3拼:海格星 [PR2] 2019-8-25 19:59:48 17小时37分 [出价]
imgmemory.com 9 ≈88 -- 2019-8-25 19:59:48 17小时37分 [出价]
gzndk.com 5 ≈88 -- 2019-8-25 19:59:49 17小时37分 [出价]
chunyichemicaLs.com 15 ≈88 -- 2019-8-25 19:59:50 17小时37分 [出价]
zdmcwx.com 6 ≈88 -- 2019-8-25 19:59:50 17小时37分 [出价]
tianjin-shangriLa.com 17 ≈388 -- 2019-8-25 20:00:21 17小时38分 [出价]
jmqcLsyd.com 8 ≈388 -- 2019-8-25 20:00:21 17小时38分 [出价]
szyahgee.com 8 ≈388 -- 2019-8-25 20:00:22 17小时38分 [出价]
hzrjhj.com 6 ≈388 -- 2019-8-25 20:00:23 17小时38分 [出价]
qwfy520.com 7 ≈348 -- 2019-8-25 20:00:23 17小时38分 [出价]
yomachine.com 9 ≈388 4拼:哟马吃呢 2019-8-25 20:00:23 17小时38分 [出价]
chinaLaicai.com 11 ≈95 4拼:吃哪来财 [PR3] 2019-8-25 20:00:24 17小时38分 [出价]
fireheroLed.com 11 ≈388 -- 2019-8-25 20:01:21 17小时39分 [出价]
wfyhbs.com 6 ≈348 -- 2019-8-25 20:01:23 17小时39分 [出价]
fkwan.net 5 ≈388 -- 2019-8-25 20:01:24 17小时39分 [出价]
moLisms.com 7 ≈388 -- 2019-8-25 20:02:21 17小时40分 [出价]
sccp55.com 6 ≈95 -- 2019-8-25 20:02:23 17小时40分 [出价]
0033500.com 7 ≈95 -- 2019-8-25 20:02:23 17小时40分 [出价]
zj-tianchi.com 10 ≈388 -- 2019-8-25 20:02:23 17小时40分 [出价]
chenchangan.com 11 ≈388 3拼:陈昌安 2019-8-25 20:02:24 17小时40分 [出价]
hengshaodz.com 10 ≈388 -- 2019-8-25 20:02:24 17小时40分 [出价]
furunvip.com 8 ≈388 -- 2019-8-25 20:03:23 17小时41分 [出价]
eastbing.com 8 ≈388 -- 2019-8-25 20:03:23 17小时41分 [出价]
mc-chem.com 7 ≈388 -- 2019-8-25 20:03:23 17小时41分 [出价]
shichengfishing.com 15 ≈388 -- 2019-8-25 20:04:22 17小时42分 [出价]
9993030.com 7 ≈95 -- 2019-8-25 20:04:24 17小时42分 [出价]
270r.com 4 ≈95 -- 2019-8-25 20:04:24 17小时42分 [出价]
hkdaziran88.com 11 ≈388 -- 2019-8-25 20:04:24 17小时42分 [出价]
bjbcgh.com 6 ≈388 -- 2019-8-25 20:04:24 17小时42分 [出价]
hoLograms-.. 19 ≈388 -- 2019-8-25 20:04:24 17小时42分 [出价]
og89.com 4 ≈95 -- 2019-8-25 20:05:21 17小时43分 [出价]
detaykitabevi.com 13 ≈388 -- 2019-8-25 20:05:22 17小时43分 [出价]
wfchwLawyer.com 11 ≈388 -- 2019-8-25 20:05:25 17小时43分 [出价]
dongchunkeji.com 12 ≈348 4拼:东纯科吉 2019-8-25 20:06:20 17小时44分 [出价]
sccp77.com 6 ≈95 -- 2019-8-25 20:06:23 17小时44分 [出价]
jiongrong.com 9 ≈149 2拼:迥融 2019-8-25 20:06:23 17小时44分 [出价]
fanwenz.com 7 ≈470 [高PR4] 2019-8-25 20:06:25 17小时44分 [出价]
shjinchao.com 9 ≈388 -- 2019-8-25 20:07:22 17小时45分 [出价]
dgtannet.net 8 ≈388 -- 2019-8-25 20:07:24 17小时45分 [出价]
chinawinstairs.com 14 ≈388 -- 2019-8-25 20:07:25 17小时45分 [出价]
rkmys.com 5 ≈388 [PR2] 2019-8-25 20:07:25 17小时45分 [出价]
yunyong.cn 7 ≈55 2拼:云用 2019-8-25 20:08:23 17小时46分 [出价]
fangzhan100.com 11 ≈388 -- 2019-8-25 20:08:23 17小时46分 [出价]
jxtcwy.com 6 ≈388 -- 2019-8-25 20:08:24 17小时46分 [出价]
au00.com 4 ≈95 -- 2019-8-25 20:09:23 17小时47分 [出价]
dayaprint.com 9 ≈129 [PR3] 2019-8-25 20:09:25 17小时47分 [出价]
psaic.com 5 ≈388 -- 2019-8-25 20:09:25 17小时47分 [出价]
boLiganghuafeichi.com 17 ≈388 6拼:博理钢花非吃 2019-8-25 20:10:22 17小时48分 [出价]
wLs687.com 6 ≈388 -- 2019-8-25 20:10:23 17小时48分 [出价]
jingmingkj.com 10 ≈388 -- 2019-8-25 20:10:24 17小时48分 [出价]
xa388.com 5 ≈95 -- 2019-8-25 20:11:21 17小时49分 [出价]
wytmmg.com 6 ≈388 -- 2019-8-25 20:11:22 17小时49分 [出价]
jLgautomat.. 22 ≈388 -- 2019-8-25 20:11:22 17小时49分 [出价]
ynch56.com 6 ≈388 -- 2019-8-25 20:11:24 17小时49分 [出价]
hnzLjr.com 6 ≈348 -- 2019-8-25 20:12:23 17小时50分 [出价]
tanshifu.net 8 ≈388 3拼:弹视福 2019-8-25 20:12:23 17小时50分 [出价]
kingsun-dispLay.com 15 ≈348 -- 2019-8-25 20:12:23 17小时50分 [出价]
dhhqjx.com 6 ≈388 -- 2019-8-25 20:12:23 17小时50分 [出价]
xpg333.com 6 ≈95 -- 2019-8-25 20:12:24 17小时50分 [出价]
higupiao.com 8 ≈388 -- 2019-8-25 20:12:24 17小时50分 [出价]
sccp222.com 7 ≈95 -- 2019-8-25 20:12:25 17小时50分 [出价]
metpLas.net 7 ≈388 -- 2019-8-25 20:13:22 17小时51分 [出价]
qiandagroup.com 11 ≈388 -- 2019-8-25 20:13:22 17小时51分 [出价]
tzLvya.com 6 ≈388 -- 2019-8-25 20:13:25 17小时51分 [出价]
yLtwL.com 5 ≈139 -- 2019-8-25 20:14:21 17小时52分 [出价]
haibin.cn 6 ≈85 2拼:海宾 2019-8-25 20:14:22 17小时52分 [出价]
shanzhai5.com 9 ≈348 -- 2019-8-25 20:14:22 17小时52分 [出价]
sccp666.com 7 ≈95 -- 2019-8-25 20:14:23 17小时52分 [出价]
shyeyun.com 7 ≈348 -- 2019-8-25 20:14:23 17小时52分 [出价]
youyanzx.com 8 ≈388 -- 2019-8-25 20:14:24 17小时52分 [出价]
sh-hengtong.com 11 ≈348 -- 2019-8-25 20:14:25 17小时52分 [出价]
vuzbj.com 5 ≈388 -- 2019-8-25 20:14:26 17小时52分 [出价]
gangqinsheng.com 12 ≈88 3拼:钢琴盛 2019-8-25 20:14:29 17小时52分 [出价]
49gw.com 4 ≈88 -- 2019-8-25 20:14:30 17小时52分 [出价]
zgshizhi.com 8 ≈88 -- 2019-8-25 20:14:30 17小时52分 [出价]
dbfjjshsw.com 9 ≈88 -- 2019-8-25 20:14:31 17小时52分 [出价]
fenchengego.com 11 ≈88 -- 2019-8-25 20:14:31 17小时52分 [出价]
Lexintour.com 9 ≈88 -- 2019-8-25 20:14:31 17小时52分 [出价]
jxhdms.com 6 ≈88 -- 2019-8-25 20:14:31 17小时52分 [出价]
yLwf.net 4 ≈88 -- 2019-8-25 20:14:31 17小时52分 [出价]
fsyiLing.com 8 ≈88 -- 2019-8-25 20:14:31 17小时52分 [出价]
tenfu8.com 6 ≈88 -- 2019-8-25 20:14:32 17小时52分 [出价]
miLekejigame.com 12 ≈88 6拼:米乐科吉噶么 2019-8-25 20:14:32 17小时52分 [出价]
ebangtuan.com 9 ≈88 3拼:额邦团 2019-8-25 20:14:32 17小时52分 [出价]
chinazdg.com 8 ≈88 [PR2] 2019-8-25 20:14:32 17小时52分 [出价]
skycnc.net 6 ≈88 -- 2019-8-25 20:14:32 17小时52分 [出价]
kinzizen.com 8 ≈88 -- 2019-8-25 20:14:32 17小时52分 [出价]
sainyouda.com 9 ≈88 -- 2019-8-25 20:14:32 17小时52分 [出价]
autododo.com 8 ≈88 -- 2019-8-25 20:14:33 17小时52分 [出价]
htLxsfL.com 7 ≈88 -- 2019-8-25 20:14:33 17小时52分 [出价]
sxxLts.com 6 ≈88 -- 2019-8-25 20:14:33 17小时52分 [出价]
skyingg.com 7 ≈88 -- 2019-8-25 20:14:33 17小时52分 [出价]
Lhasats.com 7 ≈88 -- 2019-8-25 20:14:34 17小时52分 [出价]
181818e.com 7 ≈88 -- 2019-8-25 20:14:34 17小时52分 [出价]
ssxphp.com 6 ≈88 -- 2019-8-25 20:14:34 17小时52分 [出价]
每页显示:[20] [50] [100] [200] [500